Time;durP1;ratioP1;P1;durP2;ratioP2;P2;SDS_P1;SDS_P2;PMS_P1;PMS_P2;Temp;Humidity;BMP_temperature;BMP_pressure;BME280_temperature;BME280_humidity;BME280_pressure;Samples;Min_cycle;Max_cycle;Signal;HPM_P1;HPM_P2
2023/10/09 00:01:04;;;;;;;3.70;2.10;;;;;;;10.79;79.37;101689.50;4968835;28;20218;-70
2023/10/09 00:03:31;;;;;;;3.00;2.03;;;;;;;10.77;79.22;101689.00;4970473;28;20238;-71
2023/10/09 00:06:00;;;;;;;3.17;1.70;;;;;;;10.78;79.60;101682.66;4966798;28;20646;-71
2023/10/09 00:08:30;;;;;;;2.57;1.80;;;;;;;10.79;79.58;101670.22;4969587;28;20212;-70
2023/10/09 00:10:58;;;;;;;1.57;1.40;;;;;;;10.79;80.54;101665.72;4972288;28;20208;-70
2023/10/09 00:13:32;;;;;;;2.47;1.87;;;;;;;10.79;80.03;101663.09;4970499;28;20231;-70
2023/10/09 00:16:14;;;;;;;2.70;1.80;;;;;;;10.79;80.47;101672.84;4966629;28;20207;-71
2023/10/09 00:18:46;;;;;;;2.53;1.80;;;;;;;10.78;80.12;101661.53;4968213;28;20216;-71
2023/10/09 00:21:16;;;;;;;2.60;2.10;;;;;;;10.81;81.28;101662.78;4953970;28;20208;-71
2023/10/09 00:23:42;;;;;;;2.53;2.00;;;;;;;10.79;80.49;101657.81;4961439;28;20208;-71
2023/10/09 00:26:12;;;;;;;2.67;1.77;;;;;;;10.80;80.96;101666.50;4972316;28;20208;-71
2023/10/09 00:28:46;;;;;;;2.67;1.90;;;;;;;10.79;80.97;101665.72;4984123;28;20208;-70
2023/10/09 00:31:15;;;;;;;4.77;1.87;;;;;;;10.82;81.74;101667.75;4956713;28;20228;-71
2023/10/09 00:33:43;;;;;;;2.10;1.60;;;;;;;10.80;81.99;101675.22;4961234;28;20246;-71
2023/10/09 00:36:10;;;;;;;3.33;2.10;;;;;;;10.82;81.97;101690.78;4964246;28;20216;-71
2023/10/09 00:38:44;;;;;;;3.50;2.17;;;;;;;10.81;83.22;101683.94;4962237;28;20214;-71
2023/10/09 00:41:11;;;;;;;3.53;2.30;;;;;;;10.82;82.94;101685.47;4960707;28;20900;-70
2023/10/09 00:43:42;;;;;;;2.93;2.30;;;;;;;10.81;83.21;101671.47;4966143;28;20299;-70
2023/10/09 00:46:12;;;;;;;2.53;2.10;;;;;;;10.81;83.22;101663.56;4972654;28;20628;-71
2023/10/09 00:48:40;;;;;;;5.20;2.33;;;;;;;10.80;83.70;101663.84;4969775;28;20828;-71
2023/10/09 00:51:08;;;;;;;4.00;2.33;;;;;;;10.81;83.73;101670.72;4965930;28;20207;-71
2023/10/09 00:53:34;;;;;;;4.03;2.40;;;;;;;10.78;84.46;101660.75;4967061;28;20989;-71
2023/10/09 00:56:11;;;;;;;3.67;2.67;;;;;;;10.78;83.60;101666.81;4965663;28;21259;-71
2023/10/09 00:58:40;;;;;;;2.40;2.10;;;;;;;10.78;85.17;101661.53;4962971;28;20204;-70
2023/10/09 01:01:15;;;;;;;3.90;2.50;;;;;;;10.78;85.25;101663.38;4968627;28;21377;-71
2023/10/09 01:03:42;;;;;;;2.90;2.00;;;;;;;10.76;85.69;101661.03;4967852;28;20207;-70
2023/10/09 01:06:17;;;;;;;4.43;2.03;;;;;;;10.76;85.91;101652.34;4957877;28;20237;-70
2023/10/09 01:08:55;;;;;;;3.13;2.10;;;;;;;10.74;85.62;101644.72;4959991;28;20216;-71
2023/10/09 01:11:25;;;;;;;2.43;2.23;;;;;;;10.74;86.22;101643.91;4965726;28;20984;-71
2023/10/09 01:13:59;;;;;;;4.70;2.50;;;;;;;10.73;87.14;101642.38;4967940;28;20657;-70
2023/10/09 01:16:26;;;;;;;4.13;2.30;;;;;;;10.75;86.82;101632.25;4961256;28;20225;-70
2023/10/09 01:18:56;;;;;;;4.87;2.53;;;;;;;10.72;86.33;101628.38;4964404;28;20207;-71
2023/10/09 01:21:24;;;;;;;2.90;2.37;;;;;;;10.72;87.32;101619.66;4965396;28;20907;-71
2023/10/09 01:24:08;;;;;;;3.27;2.27;;;;;;;10.72;87.14;101611.75;4962337;28;20219;-70
2023/10/09 01:26:39;;;;;;;4.43;2.50;;;;;;;10.72;86.95;101603.81;4970168;28;20544;-71
2023/10/09 01:29:10;;;;;;;4.33;2.60;;;;;;;10.71;86.48;101603.03;4976537;28;20394;-70
2023/10/09 01:31:38;;;;;;;3.50;2.50;;;;;;;10.70;86.76;101596.19;4970859;28;20613;-71
2023/10/09 01:34:09;;;;;;;5.33;3.03;;;;;;;10.71;87.03;101586.41;4958442;28;20231;-71
2023/10/09 01:36:39;;;;;;;4.33;2.33;;;;;;;10.69;87.29;101576.16;4967342;28;20666;-70
2023/10/09 01:39:08;;;;;;;3.27;2.97;;;;;;;10.68;86.89;101592.28;4965324;28;20289;-70
2023/10/09 01:41:37;;;;;;;3.30;2.77;;;;;;;10.67;87.21;101583.56;4963319;28;20234;-71
2023/10/09 01:44:10;;;;;;;4.07;2.90;;;;;;;10.67;87.63;101577.53;4967614;28;20321;-71
2023/10/09 01:46:36;;;;;;;4.07;2.70;;;;;;;10.67;88.15;101575.66;4960655;28;20509;-71
2023/10/09 01:49:09;;;;;;;4.43;3.47;;;;;;;10.64;88.00;101570.19;4967470;28;20215;-70
2023/10/09 01:51:38;;;;;;;5.23;2.90;;;;;;;10.64;88.19;101567.56;4966390;28;20775;-71
2023/10/09 01:54:05;;;;;;;3.63;2.63;;;;;;;10.63;87.98;101563.38;4967399;28;20424;-71
2023/10/09 01:56:36;;;;;;;5.30;3.00;;;;;;;10.63;88.28;101571.28;4958633;28;20668;-71
2023/10/09 01:59:05;;;;;;;4.83;3.30;;;;;;;10.61;87.84;101561.00;4984616;28;20257;-70
2023/10/09 02:01:32;;;;;;;6.30;2.97;;;;;;;10.61;88.09;101553.09;4966399;28;20429;-70
2023/10/09 02:04:05;;;;;;;3.87;3.23;;;;;;;10.62;88.86;101553.88;4968851;28;20207;-71
2023/10/09 02:06:32;;;;;;;4.83;3.13;;;;;;;10.62;88.34;101549.34;4969723;28;20219;-70
2023/10/09 02:08:59;;;;;;;5.77;3.80;;;;;;;10.60;88.19;101530.41;4967918;28;20291;-70
2023/10/09 02:11:36;;;;;;;4.83;3.33;;;;;;;10.61;88.86;101528.56;4966570;28;20227;-71
2023/10/09 02:14:18;;;;;;;5.47;3.27;;;;;;;10.60;88.78;101527.75;4969797;28;21224;-70
2023/10/09 02:17:02;;;;;;;5.60;3.30;;;;;;;10.60;88.69;101504.00;4967032;28;20212;-70
2023/10/09 02:19:31;;;;;;;5.13;3.33;;;;;;;10.61;88.79;101494.22;4969761;28;20217;-70
2023/10/09 02:21:58;;;;;;;3.40;2.93;;;;;;;10.61;88.82;101484.41;4968318;28;20227;-70
2023/10/09 02:24:44;;;;;;;7.17;3.63;;;;;;;10.62;88.74;101475.41;4957527;28;21278;-70
2023/10/09 02:27:12;;;;;;;6.30;3.63;;;;;;;10.63;89.19;101460.34;4966511;28;20922;-70
2023/10/09 02:29:42;;;;;;;5.70;3.60;;;;;;;10.63;89.37;101460.34;4966912;28;20490;-70
2023/10/09 02:32:24;;;;;;;5.37;3.70;;;;;;;10.63;89.28;101463.78;4965983;28;21328;-71
2023/10/09 02:34:53;;;;;;;8.40;3.90;;;;;;;10.64;89.76;101451.34;4962577;28;20931;-71
2023/10/09 02:37:23;;;;;;;4.03;3.60;;;;;;;10.63;89.21;101433.94;4967212;28;20204;-71
2023/10/09 02:39:52;;;;;;;5.93;3.67;;;;;;;10.63;89.75;101424.16;4969206;28;20200;-71
2023/10/09 02:42:27;;;;;;;4.63;3.77;;;;;;;10.63;89.72;101415.44;4964228;28;20236;-71
2023/10/09 02:44:56;;;;;;;6.43;3.97;;;;;;;10.63;90.12;101416.25;4969180;28;21746;-71
2023/10/09 02:47:24;;;;;;;5.23;3.73;;;;;;;10.65;89.90;101392.16;4966358;28;20217;-71
2023/10/09 02:49:51;;;;;;;6.40;3.97;;;;;;;10.64;89.91;101377.38;4970455;28;20330;-70
2023/10/09 02:52:24;;;;;;;6.77;3.90;;;;;;;10.63;90.01;101358.13;4986883;28;20227;-71
2023/10/09 02:54:59;;;;;;;4.47;3.20;;;;;;;10.63;89.49;101368.69;4959054;28;20236;-71
2023/10/09 02:57:29;;;;;;;4.37;3.60;;;;;;;10.64;89.87;101364.97;4970534;28;20218;-70
2023/10/09 02:59:59;;;;;;;6.73;4.00;;;;;;;10.65;90.31;101352.53;4964741;28;20828;-71
2023/10/09 03:02:26;;;;;;;7.50;3.90;;;;;;;10.63;89.84;101357.34;4972568;28;20365;-71
2023/10/09 03:04:55;;;;;;;6.00;3.50;;;;;;;10.65;89.57;101352.53;4970368;28;21107;-71
2023/10/09 03:07:23;;;;;;;4.47;3.10;;;;;;;10.66;90.37;101351.47;4973276;28;20277;-72
2023/10/09 03:09:49;;;;;;;6.90;3.23;;;;;;;10.64;89.66;101343.06;4973697;28;20656;-71
2023/10/09 03:12:18;;;;;;;4.20;3.40;;;;;;;10.66;89.39;101343.53;4962536;28;20619;-71
2023/10/09 03:14:45;;;;;;;5.00;2.90;;;;;;;10.66;89.83;101357.50;4971697;28;20227;-71
2023/10/09 03:17:13;;;;;;;6.50;3.37;;;;;;;10.66;89.47;101362.78;4966275;28;20330;-71
2023/10/09 03:19:39;;;;;;;5.87;2.90;;;;;;;10.67;89.46;101380.19;4959369;28;20211;-71
2023/10/09 03:22:09;;;;;;;5.13;2.80;;;;;;;10.68;90.27;101394.19;4970730;28;20670;-71
2023/10/09 03:24:37;;;;;;;5.10;2.97;;;;;;;10.68;89.61;101386.25;4961953;28;21292;-71
2023/10/09 03:27:03;;;;;;;5.13;3.23;;;;;;;10.68;89.57;101386.25;4977148;28;21061;-70
2023/10/09 03:29:30;;;;;;;4.60;3.03;;;;;;;10.68;89.03;101379.13;4967021;28;20204;-71
2023/10/09 03:31:56;;;;;;;6.07;3.17;;;;;;;10.70;89.63;101381.44;4968967;28;20235;-71
2023/10/09 03:34:24;;;;;;;6.30;3.00;;;;;;;10.69;89.86;101370.13;4969937;28;21788;-71
2023/10/09 03:37:03;;;;;;;4.77;3.17;;;;;;;10.68;89.98;101370.41;4968578;28;20286;-71
2023/10/09 03:39:34;;;;;;;5.73;3.13;;;;;;;10.66;89.28;101352.22;4963364;28;20223;-71
2023/10/09 03:42:04;;;;;;;6.00;3.23;;;;;;;10.67;89.89;101353.03;4969414;28;22031;-71
2023/10/09 03:44:34;;;;;;;5.47;2.83;;;;;;;10.66;89.63;101362.78;4970683;28;20215;-71
2023/10/09 03:47:01;;;;;;;5.23;3.17;;;;;;;10.66;90.08;101360.16;4971579;28;20813;-71
2023/10/09 03:49:29;;;;;;;4.30;3.17;;;;;;;10.65;89.79;101353.31;4959912;28;20580;-70
2023/10/09 03:51:56;;;;;;;5.67;3.33;;;;;;;10.63;89.83;101358.13;4969195;28;20399;-71
2023/10/09 03:54:24;;;;;;;4.67;3.10;;;;;;;10.61;90.00;101341.81;4968752;28;20227;-70
2023/10/09 03:56:50;;;;;;;4.53;3.13;;;;;;;10.61;90.52;101319.91;4970899;28;20208;-70
2023/10/09 03:59:17;;;;;;;4.93;3.13;;;;;;;10.61;90.17;101312.75;4969320;28;20405;-71
2023/10/09 04:01:45;;;;;;;4.13;2.90;;;;;;;10.59;90.03;101301.72;4963070;28;20357;-71
2023/10/09 04:04:14;;;;;;;4.00;3.00;;;;;;;10.57;89.91;101293.31;4969709;28;20681;-70
2023/10/09 04:06:41;;;;;;;3.67;2.50;;;;;;;10.55;89.95;101295.50;4974159;28;20307;-71
2023/10/09 04:09:27;;;;;;;4.43;3.20;;;;;;;10.52;89.95;101290.06;4966112;28;20670;-71
2023/10/09 04:12:13;;;;;;;3.77;2.77;;;;;;;10.49;89.84;101280.88;4965908;28;20289;-71
2023/10/09 04:14:54;;;;;;;3.30;2.80;;;;;;;10.48;89.52;101268.00;4965416;28;20390;-71
2023/10/09 04:17:34;;;;;;;4.50;2.60;;;;;;;10.47;89.40;101255.88;4963945;28;20212;-70
2023/10/09 04:20:50;;;;;;;7.33;4.63;;;;;;;10.47;89.99;101242.69;4967073;28;21180;-71
2023/10/09 04:23:16;;;;;;;5.10;3.87;;;;;;;10.44;90.36;101222.94;4971285;28;20239;-71
2023/10/09 04:25:45;;;;;;;5.90;3.40;;;;;;;10.43;90.28;101221.41;4966872;28;20220;-71
2023/10/09 04:28:18;;;;;;;4.40;3.03;;;;;;;10.41;89.76;101226.19;4964377;28;20207;-70
2023/10/09 04:30:53;;;;;;;3.47;3.13;;;;;;;10.40;89.33;101234.44;4964347;28;20296;-71
2023/10/09 04:33:34;;;;;;;4.47;3.77;;;;;;;10.39;89.25;101225.72;4964100;28;20223;-71
2023/10/09 04:36:21;;;;;;;5.27;3.03;;;;;;;10.37;89.58;101216.56;4958698;28;20223;-71
2023/10/09 04:39:16;;;;;;;6.13;2.83;;;;;;;10.36;89.13;101209.72;4965456;28;20810;-70
2023/10/09 04:42:18;;;;;;;4.07;2.90;;;;;;;10.32;89.28;101193.75;4971040;28;20320;-71
2023/10/09 04:44:58;;;;;;;4.13;3.20;;;;;;;10.29;89.98;101190.91;4961932;28;20238;-71
2023/10/09 04:47:25;;;;;;;5.27;4.50;;;;;;;10.28;90.07;101174.31;4962464;28;20694;-71
2023/10/09 04:50:02;;;;;;;6.03;5.37;;;;;;;10.25;89.34;101156.44;4957182;28;20204;-71
2023/10/09 04:55:19;;;;;;;4.60;3.20;;;;;;;10.24;89.13;101156.78;4966820;28;20239;-70
2023/10/09 04:58:00;;;;;;;3.53;3.10;;;;;;;10.21;90.02;101157.38;4964783;28;20207;-71
2023/10/09 05:00:46;;;;;;;4.53;2.73;;;;;;;10.17;89.14;101146.66;4968175;28;20683;-71
2023/10/09 05:03:25;;;;;;;3.60;2.53;;;;;;;10.18;89.59;101139.50;4969586;28;20668;-71
2023/10/09 05:05:58;;;;;;;6.00;3.00;;;;;;;10.15;89.32;101143.53;4973751;28;20554;-71
2023/10/09 05:08:29;;;;;;;3.43;2.80;;;;;;;10.14;89.64;101147.28;4970580;28;20214;-71
2023/10/09 05:11:15;;;;;;;3.40;2.80;;;;;;;10.12;89.34;101133.63;4971879;28;20696;-71
2023/10/09 05:13:44;;;;;;;3.23;2.50;;;;;;;10.12;89.50;101132.84;4973763;28;20232;-71
2023/10/09 05:16:18;;;;;;;3.10;2.70;;;;;;;10.11;89.46;101136.56;4970150;28;20207;-71
2023/10/09 05:18:45;;;;;;;4.87;2.90;;;;;;;10.08;90.19;101143.22;4965274;28;20219;-71
2023/10/09 05:24:15;;;;;;;5.33;3.70;;;;;;;10.05;90.30;101143.06;4975248;28;20234;-71
2023/10/09 05:26:50;;;;;;;4.17;3.40;;;;;;;10.05;90.40;101170.22;4972985;28;20385;-71
2023/10/09 05:29:24;;;;;;;5.00;3.80;;;;;;;10.03;90.96;101182.94;4975581;28;20206;-71
2023/10/09 05:31:57;;;;;;;4.03;3.10;;;;;;;10.01;90.54;101205.41;4971515;28;20235;-71
2023/10/09 05:34:33;;;;;;;5.30;3.70;;;;;;;9.99;90.62;101215.50;4972274;28;20231;-71
2023/10/09 05:37:10;;;;;;;6.10;3.53;;;;;;;9.96;91.09;101224.81;4971093;28;21574;-71
2023/10/09 05:39:41;;;;;;;4.73;4.00;;;;;;;9.94;90.65;101219.06;4973007;28;20262;-71
2023/10/09 05:42:12;;;;;;;4.57;3.20;;;;;;;9.90;91.83;101175.13;4965597;28;20308;-71
2023/10/09 05:46:07;;;;;;;4.10;3.20;;;;;;;9.89;91.52;101190.16;4972003;28;20780;-71
2023/10/09 05:47:53;;;;;;;6.37;3.50;;;;;;;9.86;92.14;101177.59;4974082;28;20214;-71
2023/10/09 05:50:34;;;;;;;6.17;3.73;;;;;;;9.86;91.91;101174.19;4972902;28;20242;-70
2023/10/09 05:53:06;;;;;;;4.60;3.53;;;;;;;9.85;92.24;101176.06;4973732;28;20460;-71
2023/10/09 06:03:49;;;;;;;6.83;3.63;;;;;;;9.84;92.50;101171.84;4966041;28;20210;-71
2023/10/09 06:06:32;;;;;;;5.27;3.80;;;;;;;9.84;92.48;101174.47;4963282;28;20828;-71
2023/10/09 06:11:49;;;;;;;5.23;4.03;;;;;;;9.78;92.97;101173.06;4978873;28;20428;-71
2023/10/09 06:14:24;;;;;;;6.27;4.27;;;;;;;9.79;92.90;101166.72;4980642;28;20918;-72
2023/10/09 06:17:01;;;;;;;6.97;4.47;;;;;;;9.78;93.06;101180.97;4976558;28;20590;-71
2023/10/09 06:19:27;;;;;;;7.20;5.00;;;;;;;9.78;92.45;101173.06;4976534;28;20864;-71
2023/10/09 06:24:42;;;;;;;5.03;4.40;;;;;;;9.76;92.72;101177.09;4974119;28;20218;-71
2023/10/09 06:27:24;;;;;;;6.90;5.03;;;;;;;9.75;92.88;101176.34;4979687;28;20214;-71
2023/10/09 06:29:51;;;;;;;8.33;5.07;;;;;;;9.76;93.34;101185.00;4979555;28;20209;-71
2023/10/09 06:32:34;;;;;;;9.87;5.07;;;;;;;9.76;92.83;101191.06;4978595;28;20623;-71
2023/10/09 06:35:15;;;;;;;7.77;5.07;;;;;;;9.76;93.03;101195.56;4976617;28;20238;-71
2023/10/09 06:38:23;;;;;;;7.53;5.23;;;;;;;9.75;93.03;101196.63;4968580;28;20253;-71
2023/10/09 06:43:26;;;;;;;7.37;5.10;;;;;;;9.74;93.15;101201.13;4945592;28;20331;-71
2023/10/09 06:45:57;;;;;;;6.67;5.23;;;;;;;9.75;92.98;101207.19;4974345;28;20205;-71
2023/10/09 06:48:45;;;;;;;8.67;4.57;;;;;;;9.75;93.75;101201.91;4978660;28;20303;-71
2023/10/09 06:51:40;;;;;;;5.33;4.23;;;;;;;9.74;93.38;101198.50;4976505;28;20293;-71
2023/10/09 06:54:06;;;;;;;5.53;4.00;;;;;;;9.76;93.91;101190.28;4980594;28;20681;-71
2023/10/09 06:59:20;;;;;;;10.50;5.40;;;;;;;9.77;93.47;101184.72;4976793;28;20219;-71
2023/10/09 07:02:25;;;;;;;6.57;4.70;;;;;;;9.79;93.76;101190.44;4970371;28;20265;-71
2023/10/09 07:04:48;;;;;;;6.13;4.20;;;;;;;9.81;93.56;101193.56;4975619;28;20817;-71
2023/10/09 07:07:16;;;;;;;7.37;4.80;;;;;;;9.83;93.42;101194.03;4975565;28;20220;-72
2023/10/09 07:09:43;;;;;;;7.90;4.50;;;;;;;9.83;93.49;101194.03;4977753;28;20277;-71
2023/10/09 07:12:13;;;;;;;6.53;4.47;;;;;;;9.84;93.48;101190.31;4974155;28;20246;-71
2023/10/09 07:15:21;;;;;;;8.40;5.93;;;;;;;9.87;93.46;101196.84;4973380;28;20253;-71
2023/10/09 07:17:52;;;;;;;7.33;4.60;;;;;;;9.88;93.33;101193.91;4977251;28;20212;-71
2023/10/09 07:20:36;;;;;;;7.70;4.90;;;;;;;9.89;93.44;101187.53;4977581;28;20254;-71
2023/10/09 07:23:14;;;;;;;5.73;4.80;;;;;;;9.91;93.37;101181.97;4977042;28;21344;-71
2023/10/09 07:25:41;;;;;;;5.83;4.50;;;;;;;9.93;93.42;101183.22;4976852;28;21156;-71
2023/10/09 07:28:28;;;;;;;5.63;4.37;;;;;;;9.96;93.20;101176.53;4977416;28;20212;-71
2023/10/09 07:30:57;;;;;;;6.23;4.80;;;;;;;9.98;92.68;101175.16;4974248;28;20204;-71
2023/10/09 07:33:50;;;;;;;7.50;3.77;;;;;;;10.02;93.24;101183.22;4979409;28;20223;-72
2023/10/09 07:36:29;;;;;;;5.40;4.60;;;;;;;10.04;93.71;101173.94;4977918;28;20412;-71
2023/10/09 07:38:59;;;;;;;4.90;4.10;;;;;;;10.06;92.77;101179.72;4978893;28;20337;-71
2023/10/09 07:41:44;;;;;;;8.40;4.27;;;;;;;10.08;92.02;101182.81;4974264;28;20215;-71
2023/10/09 07:44:33;;;;;;;5.70;4.07;;;;;;;10.12;92.63;101185.63;4975384;28;21365;-71
2023/10/09 07:47:22;;;;;;;4.07;3.67;;;;;;;10.14;92.36;101176.31;4970429;28;20212;-71
2023/10/09 07:49:53;;;;;;;4.77;3.73;;;;;;;10.20;91.92;101176.94;4975032;28;20227;-71
2023/10/09 07:52:21;;;;;;;4.43;4.00;;;;;;;10.21;91.81;101183.78;4966486;28;22591;-71
2023/10/09 07:54:52;;;;;;;5.47;3.77;;;;;;;10.23;91.60;101182.38;4963131;28;20916;-71
2023/10/09 07:57:25;;;;;;;4.40;3.53;;;;;;;10.25;91.92;101180.19;4977375;28;20712;-71
2023/10/09 08:00:00;;;;;;;4.47;3.57;;;;;;;10.29;92.09;101185.63;4975050;28;21645;-71
2023/10/09 08:02:32;;;;;;;4.30;3.50;;;;;;;10.30;91.51;101201.16;4989427;28;20230;-71
2023/10/09 08:05:18;;;;;;;5.23;3.73;;;;;;;10.32;91.37;101203.50;4974857;28;20362;-71
2023/10/09 08:07:54;;;;;;;4.60;3.20;;;;;;;10.34;91.45;101202.13;4975342;28;20818;-71
2023/10/09 08:16:04;;;;;;;3.83;3.50;;;;;;;10.41;91.28;101209.59;4965874;28;20274;-71
2023/10/09 08:18:31;;;;;;;5.00;3.67;;;;;;;10.42;91.07;101216.41;4974215;28;20216;-71
2023/10/09 08:24:04;;;;;;;5.80;3.13;;;;;;;10.50;91.10;101205.09;4951935;28;20355;-71
2023/10/09 08:26:47;;;;;;;4.93;3.63;;;;;;;10.55;90.69;101189.88;4934503;28;20221;-71
2023/10/09 08:29:17;;;;;;;4.93;3.90;;;;;;;10.59;90.74;101197.94;4963888;28;20879;-71
2023/10/09 08:31:48;;;;;;;4.03;3.37;;;;;;;10.62;91.11;101190.19;4971403;28;22158;-71
2023/10/09 08:34:26;;;;;;;4.20;3.80;;;;;;;10.66;90.91;101190.34;4975092;28;20764;-71
2023/10/09 08:36:54;;;;;;;4.83;4.20;;;;;;;10.65;90.16;101181.63;4969908;28;20213;-71
2023/10/09 08:39:26;;;;;;;4.97;4.07;;;;;;;10.70;89.32;101175.41;4976548;28;21711;-71
2023/10/09 08:41:53;;;;;;;5.60;3.97;;;;;;;10.72;89.59;101199.69;4963486;28;20547;-71
2023/10/09 08:44:22;;;;;;;4.70;4.13;;;;;;;10.74;89.33;101208.84;4975456;28;20224;-71
2023/10/09 08:46:50;;;;;;;4.40;4.00;;;;;;;10.77;90.17;101210.84;4965598;28;20307;-71
2023/10/09 08:49:17;;;;;;;4.60;4.20;;;;;;;10.78;89.57;101204.50;4975607;28;20210;-71
2023/10/09 08:51:46;;;;;;;4.60;4.00;;;;;;;10.78;89.62;101220.34;4974880;28;20238;-71
2023/10/09 08:54:14;;;;;;;4.90;4.00;;;;;;;10.79;89.64;101224.53;4979254;28;20209;-71
2023/10/09 08:56:49;;;;;;;5.60;4.53;;;;;;;10.78;88.75;101225.63;4971990;28;20850;-71
2023/10/09 08:59:18;;;;;;;4.90;4.40;;;;;;;10.81;89.65;101240.09;4974168;28;20211;-71
2023/10/09 09:01:44;;;;;;;6.83;5.27;;;;;;;10.80;89.93;101226.09;4972054;28;20227;-71
2023/10/09 09:04:11;;;;;;;5.60;5.10;;;;;;;10.80;88.22;101220.00;4968932;28;20291;-71
2023/10/09 09:06:40;;;;;;;5.23;4.77;;;;;;;10.81;88.81;101227.63;4974594;28;20645;-73
2023/10/09 09:09:13;;;;;;;6.00;5.17;;;;;;;10.80;87.77;101230.59;4973735;28;20212;-71
2023/10/09 09:11:49;;;;;;;5.57;5.07;;;;;;;10.85;88.96;101225.94;4973830;28;20263;-71
2023/10/09 09:14:19;;;;;;;6.70;6.00;;;;;;;10.91;89.48;101215.97;4981126;28;20218;-71
2023/10/09 09:16:48;;;;;;;6.93;6.23;;;;;;;10.95;88.59;101212.41;4973094;28;21511;-71
2023/10/09 09:19:18;;;;;;;7.57;6.77;;;;;;;10.98;88.58;101218.94;4974290;28;21141;-71
2023/10/09 09:21:54;;;;;;;8.43;7.30;;;;;;;10.99;89.09;101229.19;4974746;28;20315;-71
2023/10/09 09:24:26;;;;;;;8.53;6.30;;;;;;;11.01;88.36;101216.44;4974263;28;20209;-71
2023/10/09 09:27:09;;;;;;;8.80;7.80;;;;;;;11.00;89.60;101220.19;4970311;28;20201;-71
2023/10/09 09:29:40;;;;;;;7.67;6.87;;;;;;;10.99;89.15;101213.34;4975937;28;20207;-71
2023/10/09 09:32:17;;;;;;;7.53;6.50;;;;;;;10.97;88.33;101214.75;4973767;28;21861;-71
2023/10/09 09:34:48;;;;;;;11.33;7.83;;;;;;;10.98;89.23;101218.94;4973563;28;20796;-71
2023/10/09 09:37:20;;;;;;;8.97;7.50;;;;;;;10.95;89.45;101220.34;4974586;28;20204;-71
2023/10/09 09:39:48;;;;;;;8.33;7.40;;;;;;;10.93;88.64;101214.56;4975221;28;20212;-72
2023/10/09 09:42:18;;;;;;;9.03;7.70;;;;;;;10.91;88.06;101218.59;4970879;28;20228;-71
2023/10/09 09:44:46;;;;;;;12.13;8.40;;;;;;;10.90;88.40;101211.78;4975087;28;20215;-71
2023/10/09 09:47:23;;;;;;;10.83;7.37;;;;;;;10.91;88.33;101200.13;4973389;28;20730;-71
2023/10/09 09:49:52;;;;;;;9.13;7.80;;;;;;;10.89;88.34;101213.66;4972828;28;20236;-71
2023/10/09 09:52:19;;;;;;;9.93;8.27;;;;;;;10.91;87.85;101214.13;4970187;28;20243;-71
2023/10/09 09:54:45;;;;;;;10.00;7.57;;;;;;;10.94;88.36;101197.66;4973822;28;20236;-72
2023/10/09 09:57:25;;;;;;;8.70;7.80;;;;;;;10.92;87.40;101202.44;4963997;28;22235;-72
2023/10/09 09:59:55;;;;;;;7.87;6.23;;;;;;;10.94;87.55;101195.00;4967147;28;20425;-71
2023/10/09 10:02:28;;;;;;;9.70;6.90;;;;;;;10.98;88.59;101187.22;4970614;28;20254;-71
2023/10/09 10:04:59;;;;;;;8.23;6.20;;;;;;;10.97;87.61;101188.31;4969386;28;20235;-72
2023/10/09 10:07:31;;;;;;;6.70;5.80;;;;;;;11.00;87.80;101193.75;4963611;28;20212;-72
2023/10/09 10:09:57;;;;;;;5.77;4.50;;;;;;;11.03;88.46;101189.72;4961888;28;20328;-72
2023/10/09 10:13:01;;;;;;;5.83;4.37;;;;;;;11.06;88.84;101202.28;4962434;28;20330;-72
2023/10/09 10:16:00;;;;;;;4.80;3.87;;;;;;;11.07;88.15;101201.22;4969448;28;20358;-72
2023/10/09 10:18:32;;;;;;;4.90;3.90;;;;;;;11.06;87.38;101203.06;4964288;28;20215;-71
2023/10/09 10:21:14;;;;;;;6.07;4.60;;;;;;;11.10;88.25;101206.66;4971761;28;20322;-71
2023/10/09 10:23:41;;;;;;;4.80;4.30;;;;;;;11.11;87.54;101208.19;4969924;28;20205;-71
2023/10/09 10:26:20;;;;;;;4.50;3.10;;;;;;;11.12;88.85;101214.28;4971135;28;21039;-72
2023/10/09 10:29:22;;;;;;;3.03;2.73;;;;;;;11.09;87.58;101207.75;4984970;28;20228;-71
2023/10/09 10:31:56;;;;;;;3.57;2.53;;;;;;;11.11;88.94;101217.97;4973753;28;20254;-72
2023/10/09 10:34:24;;;;;;;3.53;2.63;;;;;;;11.06;87.94;101211.00;4970312;28;20223;-71
2023/10/09 10:36:58;;;;;;;5.50;2.60;;;;;;;11.07;89.22;101217.81;4963212;28;20714;-72
2023/10/09 10:39:42;;;;;;;2.67;2.03;;;;;;;11.06;89.51;101215.50;4968101;28;20213;-72
2023/10/09 10:42:14;;;;;;;3.03;2.60;;;;;;;11.04;88.63;101215.03;4969414;28;20321;-72
2023/10/09 10:44:44;;;;;;;3.43;2.27;;;;;;;11.02;88.63;101215.34;4971906;28;20612;-71
2023/10/09 10:47:31;;;;;;;4.80;2.63;;;;;;;11.02;88.34;101222.53;4974091;28;20209;-71
2023/10/09 10:50:07;;;;;;;3.77;2.73;;;;;;;11.03;88.48;101216.91;4973462;28;20208;-71
2023/10/09 10:52:41;;;;;;;4.07;2.97;;;;;;;11.04;88.14;101212.41;4973914;28;20313;-71
2023/10/09 10:55:17;;;;;;;3.30;2.73;;;;;;;11.07;88.23;101211.78;4975235;28;20240;-71
2023/10/09 10:58:04;;;;;;;4.23;2.73;;;;;;;11.09;87.73;101209.59;4977513;28;20213;-71
2023/10/09 11:03:23;;;;;;;5.13;2.60;;;;;;;11.14;88.51;101220.75;4977224;28;20680;-71
2023/10/09 11:05:55;;;;;;;7.57;3.17;;;;;;;11.18;88.46;101218.28;4975137;28;20368;-71
2023/10/09 11:08:32;;;;;;;3.10;2.40;;;;;;;11.20;88.16;101226.69;4975499;28;20223;-71
2023/10/09 11:11:15;;;;;;;3.83;2.50;;;;;;;11.20;88.77;101210.81;4968156;28;20589;-71
2023/10/09 11:13:53;;;;;;;3.83;2.50;;;;;;;11.19;87.91;101206.63;4977022;28;20338;-71
2023/10/09 11:16:41;;;;;;;3.63;2.90;;;;;;;11.20;88.02;101197.59;4978653;28;20560;-71
2023/10/09 11:19:22;;;;;;;4.63;2.50;;;;;;;11.20;88.84;101206.31;4978023;28;20905;-71
2023/10/09 11:21:58;;;;;;;4.43;2.70;;;;;;;11.20;88.07;101189.66;4979659;28;20234;-71
2023/10/09 11:24:24;;;;;;;5.73;2.90;;;;;;;11.19;88.17;101185.47;4977225;28;20943;-71
2023/10/09 11:26:55;;;;;;;6.67;2.50;;;;;;;11.21;88.80;101178.78;4975784;28;21415;-72
2023/10/09 11:29:31;;;;;;;5.53;2.80;;;;;;;11.27;88.55;101182.03;4977700;28;20680;-71
2023/10/09 11:32:01;;;;;;;3.13;2.27;;;;;;;11.30;88.18;101184.06;4966913;28;20264;-71
2023/10/09 11:34:31;;;;;;;3.63;3.03;;;;;;;11.32;88.54;101195.88;4976812;28;20613;-71
2023/10/09 11:37:02;;;;;;;4.80;2.53;;;;;;;11.35;87.92;101191.81;4963780;28;20265;-71
2023/10/09 11:39:34;;;;;;;5.27;2.53;;;;;;;11.41;87.61;101190.56;4977444;28;20303;-71
2023/10/09 11:42:08;;;;;;;2.83;2.20;;;;;;;11.45;88.65;101194.13;4974011;28;20266;-70
2023/10/09 11:44:39;;;;;;;3.90;2.77;;;;;;;11.50;88.73;101186.78;4976793;28;20218;-71
2023/10/09 11:47:24;;;;;;;6.83;3.57;;;;;;;11.55;88.18;101188.50;4964594;28;21901;-71
2023/10/09 11:52:35;;;;;;;11.07;4.23;;;;;;;11.68;87.98;101185.66;4975101;28;20824;-71
2023/10/09 11:55:02;;;;;;;6.30;3.10;;;;;;;11.74;87.88;101191.56;4977792;28;20215;-71
2023/10/09 11:57:33;;;;;;;5.63;3.13;;;;;;;11.77;87.64;101197.00;4973633;28;21396;-71
2023/10/09 12:00:00;;;;;;;5.93;3.50;;;;;;;11.83;88.02;101185.13;4994861;22;20180;-71
2023/10/09 12:02:28;;;;;;;5.83;3.30;;;;;;;11.86;86.60;101176.53;4991520;28;21411;-71
2023/10/09 12:04:55;;;;;;;4.53;2.83;;;;;;;11.90;87.49;101188.06;4992569;28;20229;-70
2023/10/09 12:07:23;;;;;;;5.37;3.57;;;;;;;11.93;88.66;101182.13;4991559;28;21382;-70
2023/10/09 12:09:51;;;;;;;5.10;3.37;;;;;;;11.96;87.64;101180.72;4997977;28;20946;-71
2023/10/09 12:12:18;;;;;;;6.67;3.30;;;;;;;11.95;87.80;101168.59;4992782;28;20206;-70
2023/10/09 12:14:45;;;;;;;8.23;3.33;;;;;;;11.94;86.29;101175.75;4992767;28;20210;-70
2023/10/09 12:17:11;;;;;;;6.57;3.30;;;;;;;11.98;86.69;101170.56;4990260;28;20223;-70
2023/10/09 12:19:39;;;;;;;5.13;3.07;;;;;;;11.97;87.33;101161.88;4996393;28;20240;-71
2023/10/09 12:22:10;;;;;;;5.90;5.00;;;;;;;11.98;87.02;101152.06;4993273;28;20214;-69
2023/10/09 12:24:37;;;;;;;4.97;3.30;;;;;;;12.01;86.55;101151.44;4992861;28;21403;-69
2023/10/09 12:27:09;;;;;;;5.70;3.57;;;;;;;12.04;86.86;101159.50;4983845;28;20638;-70
2023/10/09 12:29:36;;;;;;;5.60;3.20;;;;;;;12.06;85.77;101159.94;4996709;28;21781;-70
2023/10/09 12:32:03;;;;;;;5.23;3.30;;;;;;;12.10;85.22;101155.56;4996326;28;20233;-69
2023/10/09 12:34:30;;;;;;;6.63;3.60;;;;;;;12.13;84.96;101157.56;4996516;28;20349;-70